Peotone, Illinois
Current Conditions -  °F | °C
As of 8:55 AM on Saturday 01 Nov 2014 (Local Time) from KIKK Reporting Station
Overcast Overcast  
Wind Chill: 31°   Ceiling: 3500
Heat Index: 39°   Visibility: 10mi
Dew Point: 28°   Wind: 14mph
Humidity: 64%   Direction: 20°NNE
Pressure: 30.42"   Gusts: 18mph
Location:  41.33°N, 87.79°W
Report Text: KIKK 011355Z AUTO 02012G16KT 10SM OVC035 04/M02 A3042 RMK AO2 T00381024
Loading
Personal Weather Stations






























Interactive Weather Map
Tropical Storm Tracking
New forecast layout! Learn more

10-Day Weather Forecast

Advertisements
Track Severe Weather on mobile